sensor_id;sensor_type;location;lat;lon;timestamp;temperature;humidity
49765;DHT22;35657;51.204;-4.130;2022-12-18T00:03:47;3.80;99.90
49765;DHT22;35657;51.204;-4.130;2022-12-18T00:06:13;3.80;99.90
49765;DHT22;35657;51.204;-4.130;2022-12-18T00:08:39;3.80;99.90
49765;DHT22;35657;51.204;-4.130;2022-12-18T00:11:05;3.80;99.90
49765;DHT22;35657;51.204;-4.130;2022-12-18T00:13:31;3.80;99.90
49765;DHT22;35657;51.204;-4.130;2022-12-18T00:16:01;3.80;99.90
49765;DHT22;35657;51.204;-4.130;2022-12-18T00:18:26;3.80;99.90
49765;DHT22;35657;51.204;-4.130;2022-12-18T00:20:52;3.80;99.90
49765;DHT22;35657;51.204;-4.130;2022-12-18T00:23:17;3.80;99.90
49765;DHT22;35657;51.204;-4.130;2022-12-18T00:25:43;3.80;99.90
49765;DHT22;35657;51.204;-4.130;2022-12-18T00:28:09;3.80;99.90
49765;DHT22;35657;51.204;-4.130;2022-12-18T00:30:34;3.80;99.90
49765;DHT22;35657;51.204;-4.130;2022-12-18T00:33:00;3.80;99.90
49765;DHT22;35657;51.204;-4.130;2022-12-18T00:35:25;3.80;99.90
49765;DHT22;35657;51.204;-4.130;2022-12-18T00:37:51;3.80;99.90
49765;DHT22;35657;51.204;-4.130;2022-12-18T00:40:16;3.80;99.90
49765;DHT22;35657;51.204;-4.130;2022-12-18T00:42:42;3.90;99.90
49765;DHT22;35657;51.204;-4.130;2022-12-18T00:45:27;3.90;99.90
49765;DHT22;35657;51.204;-4.130;2022-12-18T00:47:53;3.80;99.90
49765;DHT22;35657;51.204;-4.130;2022-12-18T00:50:19;3.90;99.90
49765;DHT22;35657;51.204;-4.130;2022-12-18T00:52:44;3.90;99.90
49765;DHT22;35657;51.204;-4.130;2022-12-18T00:55:10;3.90;99.90
49765;DHT22;35657;51.204;-4.130;2022-12-18T00:57:36;3.90;99.90
49765;DHT22;35657;51.204;-4.130;2022-12-18T01:00:02;3.90;99.90
49765;DHT22;35657;51.204;-4.130;2022-12-18T01:02:28;3.80;99.90
49765;DHT22;35657;51.204;-4.130;2022-12-18T01:04:53;3.90;99.90
49765;DHT22;35657;51.204;-4.130;2022-12-18T01:07:19;3.90;99.90
49765;DHT22;35657;51.204;-4.130;2022-12-18T01:09:44;3.90;99.90
49765;DHT22;35657;51.204;-4.130;2022-12-18T01:12:10;3.90;99.90
49765;DHT22;35657;51.204;-4.130;2022-12-18T01:14:36;3.90;99.90
49765;DHT22;35657;51.204;-4.130;2022-12-18T01:17:03;3.90;99.90
49765;DHT22;35657;51.204;-4.130;2022-12-18T01:19:29;3.90;99.90
49765;DHT22;35657;51.204;-4.130;2022-12-18T01:21:54;3.90;99.90
49765;DHT22;35657;51.204;-4.130;2022-12-18T01:24:20;3.90;99.90
49765;DHT22;35657;51.204;-4.130;2022-12-18T01:26:45;3.90;99.90
49765;DHT22;35657;51.204;-4.130;2022-12-18T01:29:11;3.90;99.90
49765;DHT22;35657;51.204;-4.130;2022-12-18T01:31:36;3.90;99.90
49765;DHT22;35657;51.204;-4.130;2022-12-18T01:34:03;3.90;99.90
49765;DHT22;35657;51.204;-4.130;2022-12-18T01:36:29;3.90;99.90
49765;DHT22;35657;51.204;-4.130;2022-12-18T01:38:55;3.90;99.90
49765;DHT22;35657;51.204;-4.130;2022-12-18T01:41:22;3.90;99.90
49765;DHT22;35657;51.204;-4.130;2022-12-18T01:46:14;4.00;99.90
49765;DHT22;35657;51.204;-4.130;2022-12-18T01:48:40;4.00;99.90
49765;DHT22;35657;51.204;-4.130;2022-12-18T01:51:07;4.00;99.90
49765;DHT22;35657;51.204;-4.130;2022-12-18T01:53:33;4.00;99.90
49765;DHT22;35657;51.204;-4.130;2022-12-18T01:56:08;4.10;99.90
49765;DHT22;35657;51.204;-4.130;2022-12-18T01:58:39;4.10;99.90
49765;DHT22;35657;51.204;-4.130;2022-12-18T02:01:06;4.10;99.90
49765;DHT22;35657;51.204;-4.130;2022-12-18T02:03:31;4.10;99.90
49765;DHT22;35657;51.204;-4.130;2022-12-18T02:18:43;4.20;99.90
49765;DHT22;35657;51.204;-4.130;2022-12-18T02:23:47;4.10;99.90
49765;DHT22;35657;51.204;-4.130;2022-12-18T02:26:18;4.20;99.90
49765;DHT22;35657;51.204;-4.130;2022-12-18T02:28:49;4.20;99.90
49765;DHT22;35657;51.204;-4.130;2022-12-18T02:31:17;4.20;99.90
49765;DHT22;35657;51.204;-4.130;2022-12-18T02:33:44;4.20;99.90
49765;DHT22;35657;51.204;-4.130;2022-12-18T02:36:11;4.20;99.90
49765;DHT22;35657;51.204;-4.130;2022-12-18T02:38:37;4.20;99.90
49765;DHT22;35657;51.204;-4.130;2022-12-18T02:41:03;4.20;99.90
49765;DHT22;35657;51.204;-4.130;2022-12-18T02:43:29;4.20;99.90
49765;DHT22;35657;51.204;-4.130;2022-12-18T02:45:58;4.20;99.90
49765;DHT22;35657;51.204;-4.130;2022-12-18T02:48:26;4.20;99.90
49765;DHT22;35657;51.204;-4.130;2022-12-18T02:53:27;4.20;99.90
49765;DHT22;35657;51.204;-4.130;2022-12-18T02:56:09;4.30;99.90
49765;DHT22;35657;51.204;-4.130;2022-12-18T03:01:04;4.30;99.90
49765;DHT22;35657;51.204;-4.130;2022-12-18T03:03:39;4.30;99.90
49765;DHT22;35657;51.204;-4.130;2022-12-18T03:06:24;4.30;99.90
49765;DHT22;35657;51.204;-4.130;2022-12-18T03:08:54;4.30;99.90
49765;DHT22;35657;51.204;-4.130;2022-12-18T03:11:25;4.30;99.90
49765;DHT22;35657;51.204;-4.130;2022-12-18T03:14:10;4.30;99.90
49765;DHT22;35657;51.204;-4.130;2022-12-18T03:16:37;4.30;99.90
49765;DHT22;35657;51.204;-4.130;2022-12-18T03:19:07;4.30;99.90
49765;DHT22;35657;51.204;-4.130;2022-12-18T03:21:38;4.30;99.90
49765;DHT22;35657;51.204;-4.130;2022-12-18T03:24:06;4.30;99.90
49765;DHT22;35657;51.204;-4.130;2022-12-18T03:26:32;4.30;99.90
49765;DHT22;35657;51.204;-4.130;2022-12-18T03:29:08;4.30;99.90
49765;DHT22;35657;51.204;-4.130;2022-12-18T03:31:35;4.40;99.90
49765;DHT22;35657;51.204;-4.130;2022-12-18T03:34:04;4.30;99.90
49765;DHT22;35657;51.204;-4.130;2022-12-18T03:36:30;4.30;99.90
49765;DHT22;35657;51.204;-4.130;2022-12-18T03:38:56;4.30;99.90
49765;DHT22;35657;51.204;-4.130;2022-12-18T03:43:52;4.30;99.90
49765;DHT22;35657;51.204;-4.130;2022-12-18T03:46:26;4.40;99.90
49765;DHT22;35657;51.204;-4.130;2022-12-18T03:48:53;4.40;99.90
49765;DHT22;35657;51.204;-4.130;2022-12-18T03:51:26;4.40;99.90
49765;DHT22;35657;51.204;-4.130;2022-12-18T03:53:58;4.40;99.90
49765;DHT22;35657;51.204;-4.130;2022-12-18T03:56:25;4.40;99.90
49765;DHT22;35657;51.204;-4.130;2022-12-18T03:58:52;4.40;99.90
49765;DHT22;35657;51.204;-4.130;2022-12-18T04:01:19;4.40;99.90
49765;DHT22;35657;51.204;-4.130;2022-12-18T04:03:46;4.40;99.90
49765;DHT22;35657;51.204;-4.130;2022-12-18T04:06:13;4.40;99.90
49765;DHT22;35657;51.204;-4.130;2022-12-18T04:08:39;4.50;99.90
49765;DHT22;35657;51.204;-4.130;2022-12-18T04:11:05;4.50;99.90
49765;DHT22;35657;51.204;-4.130;2022-12-18T04:13:35;4.50;99.90
49765;DHT22;35657;51.204;-4.130;2022-12-18T04:16:01;4.50;99.90
49765;DHT22;35657;51.204;-4.130;2022-12-18T04:18:26;4.50;99.90
49765;DHT22;35657;51.204;-4.130;2022-12-18T04:20:52;4.40;99.90
49765;DHT22;35657;51.204;-4.130;2022-12-18T04:23:18;4.50;99.90
49765;DHT22;35657;51.204;-4.130;2022-12-18T04:25:43;4.50;99.90
49765;DHT22;35657;51.204;-4.130;2022-12-18T04:28:09;4.50;99.90
49765;DHT22;35657;51.204;-4.130;2022-12-18T04:30:34;4.50;99.90
49765;DHT22;35657;51.204;-4.130;2022-12-18T04:33:00;4.50;99.90
49765;DHT22;35657;51.204;-4.130;2022-12-18T04:35:26;4.50;99.90
49765;DHT22;35657;51.204;-4.130;2022-12-18T04:37:51;4.50;99.90
49765;DHT22;35657;51.204;-4.130;2022-12-18T04:40:17;4.50;99.90
49765;DHT22;35657;51.204;-4.130;2022-12-18T04:42:43;4.50;99.90
49765;DHT22;35657;51.204;-4.130;2022-12-18T04:45:08;4.60;99.90
49765;DHT22;35657;51.204;-4.130;2022-12-18T04:47:34;4.60;99.90
49765;DHT22;35657;51.204;-4.130;2022-12-18T04:49:59;4.60;99.90
49765;DHT22;35657;51.204;-4.130;2022-12-18T04:52:25;4.60;99.90
49765;DHT22;35657;51.204;-4.130;2022-12-18T04:54:50;4.60;99.90
49765;DHT22;35657;51.204;-4.130;2022-12-18T04:57:16;4.60;99.90
49765;DHT22;35657;51.204;-4.130;2022-12-18T04:59:43;4.60;99.90
49765;DHT22;35657;51.204;-4.130;2022-12-18T05:02:09;4.60;99.90
49765;DHT22;35657;51.204;-4.130;2022-12-18T05:04:34;4.60;99.90
49765;DHT22;35657;51.204;-4.130;2022-12-18T05:07:00;4.60;99.90
49765;DHT22;35657;51.204;-4.130;2022-12-18T05:09:25;4.70;99.90
49765;DHT22;35657;51.204;-4.130;2022-12-18T05:11:51;4.70;99.90
49765;DHT22;35657;51.204;-4.130;2022-12-18T05:14:17;4.80;99.90
49765;DHT22;35657;51.204;-4.130;2022-12-18T05:16:42;4.80;99.90
49765;DHT22;35657;51.204;-4.130;2022-12-18T05:19:08;4.80;99.90
49765;DHT22;35657;51.204;-4.130;2022-12-18T05:21:33;4.80;99.90
49765;DHT22;35657;51.204;-4.130;2022-12-18T05:23:59;4.80;99.90
49765;DHT22;35657;51.204;-4.130;2022-12-18T05:26:25;4.70;99.90
49765;DHT22;35657;51.204;-4.130;2022-12-18T05:28:50;4.70;99.90
49765;DHT22;35657;51.204;-4.130;2022-12-18T05:31:16;4.70;99.90
49765;DHT22;35657;51.204;-4.130;2022-12-18T05:33:41;4.70;99.90
49765;DHT22;35657;51.204;-4.130;2022-12-18T05:36:07;4.70;99.90
49765;DHT22;35657;51.204;-4.130;2022-12-18T05:38:34;4.70;99.90
49765;DHT22;35657;51.204;-4.130;2022-12-18T05:40:59;4.70;99.90
49765;DHT22;35657;51.204;-4.130;2022-12-18T05:43:25;4.70;99.90
49765;DHT22;35657;51.204;-4.130;2022-12-18T05:45:51;4.70;99.90
49765;DHT22;35657;51.204;-4.130;2022-12-18T05:48:17;4.70;99.90
49765;DHT22;35657;51.204;-4.130;2022-12-18T05:50:43;4.70;99.90
49765;DHT22;35657;51.204;-4.130;2022-12-18T05:53:10;4.70;99.90
49765;DHT22;35657;51.204;-4.130;2022-12-18T05:55:37;4.70;99.90
49765;DHT22;35657;51.204;-4.130;2022-12-18T05:58:03;4.70;99.90
49765;DHT22;35657;51.204;-4.130;2022-12-18T06:00:30;4.70;99.90
49765;DHT22;35657;51.204;-4.130;2022-12-18T06:02:55;4.70;99.90
49765;DHT22;35657;51.204;-4.130;2022-12-18T06:05:21;4.70;99.90
49765;DHT22;35657;51.204;-4.130;2022-12-18T06:07:47;4.70;99.90
49765;DHT22;35657;51.204;-4.130;2022-12-18T06:10:12;4.70;99.90
49765;DHT22;35657;51.204;-4.130;2022-12-18T06:12:38;4.70;99.90
49765;DHT22;35657;51.204;-4.130;2022-12-18T06:15:03;4.70;99.90
49765;DHT22;35657;51.204;-4.130;2022-12-18T06:17:34;4.70;99.90
49765;DHT22;35657;51.204;-4.130;2022-12-18T06:19:59;4.70;99.90
49765;DHT22;35657;51.204;-4.130;2022-12-18T06:22:26;4.80;99.90
49765;DHT22;35657;51.204;-4.130;2022-12-18T06:24:52;4.80;99.90
49765;DHT22;35657;51.204;-4.130;2022-12-18T06:27:18;4.80;99.90
49765;DHT22;35657;51.204;-4.130;2022-12-18T06:29:43;4.70;99.90
49765;DHT22;35657;51.204;-4.130;2022-12-18T06:32:09;4.80;99.90
49765;DHT22;35657;51.204;-4.130;2022-12-18T06:34:36;4.70;99.90
49765;DHT22;35657;51.204;-4.130;2022-12-18T06:37:02;4.70;99.90
49765;DHT22;35657;51.204;-4.130;2022-12-18T06:39:28;4.70;99.90
49765;DHT22;35657;51.204;-4.130;2022-12-18T06:41:53;4.70;99.90
49765;DHT22;35657;51.204;-4.130;2022-12-18T06:44:19;4.70;99.90
49765;DHT22;35657;51.204;-4.130;2022-12-18T06:46:45;4.70;99.90
49765;DHT22;35657;51.204;-4.130;2022-12-18T06:49:10;4.70;99.90
49765;DHT22;35657;51.204;-4.130;2022-12-18T06:51:36;4.70;99.90
49765;DHT22;35657;51.204;-4.130;2022-12-18T06:54:02;4.70;99.90
49765;DHT22;35657;51.204;-4.130;2022-12-18T06:56:27;4.70;99.90
49765;DHT22;35657;51.204;-4.130;2022-12-18T06:58:53;4.70;99.90
49765;DHT22;35657;51.204;-4.130;2022-12-18T07:01:19;4.70;99.90
49765;DHT22;35657;51.204;-4.130;2022-12-18T07:03:44;4.70;99.90
49765;DHT22;35657;51.204;-4.130;2022-12-18T07:06:14;4.70;99.90
49765;DHT22;35657;51.204;-4.130;2022-12-18T07:08:40;4.70;99.90
49765;DHT22;35657;51.204;-4.130;2022-12-18T07:11:05;4.70;99.90
49765;DHT22;35657;51.204;-4.130;2022-12-18T07:13:31;4.70;99.90
49765;DHT22;35657;51.204;-4.130;2022-12-18T07:16:03;4.70;99.90
49765;DHT22;35657;51.204;-4.130;2022-12-18T07:18:29;4.70;99.90
49765;DHT22;35657;51.204;-4.130;2022-12-18T07:20:55;4.70;99.90
49765;DHT22;35657;51.204;-4.130;2022-12-18T07:23:20;4.70;99.90
49765;DHT22;35657;51.204;-4.130;2022-12-18T07:25:46;4.80;99.90
49765;DHT22;35657;51.204;-4.130;2022-12-18T07:28:11;4.70;99.90
49765;DHT22;35657;51.204;-4.130;2022-12-18T07:30:37;4.70;99.90
49765;DHT22;35657;51.204;-4.130;2022-12-18T07:33:03;4.70;99.90
49765;DHT22;35657;51.204;-4.130;2022-12-18T07:35:29;4.70;99.90
49765;DHT22;35657;51.204;-4.130;2022-12-18T07:37:54;4.70;99.90
49765;DHT22;35657;51.204;-4.130;2022-12-18T07:40:20;4.70;99.90
49765;DHT22;35657;51.204;-4.130;2022-12-18T07:42:45;4.70;99.90
49765;DHT22;35657;51.204;-4.130;2022-12-18T07:45:11;4.70;99.90
49765;DHT22;35657;51.204;-4.130;2022-12-18T07:47:38;4.70;99.90
49765;DHT22;35657;51.204;-4.130;2022-12-18T07:50:04;4.70;99.90
49765;DHT22;35657;51.204;-4.130;2022-12-18T07:52:30;4.70;99.90
49765;DHT22;35657;51.204;-4.130;2022-12-18T07:54:55;4.70;99.90
49765;DHT22;35657;51.204;-4.130;2022-12-18T07:57:21;4.70;99.90
49765;DHT22;35657;51.204;-4.130;2022-12-18T07:59:46;4.70;99.90
49765;DHT22;35657;51.204;-4.130;2022-12-18T08:02:12;4.70;99.90
49765;DHT22;35657;51.204;-4.130;2022-12-18T08:04:37;4.70;99.90
49765;DHT22;35657;51.204;-4.130;2022-12-18T08:07:03;4.70;99.90
49765;DHT22;35657;51.204;-4.130;2022-12-18T08:09:28;4.70;99.90
49765;DHT22;35657;51.204;-4.130;2022-12-18T08:11:54;4.70;99.90
49765;DHT22;35657;51.204;-4.130;2022-12-18T08:14:19;4.80;99.90
49765;DHT22;35657;51.204;-4.130;2022-12-18T08:16:45;4.80;99.90
49765;DHT22;35657;51.204;-4.130;2022-12-18T08:19:11;4.80;99.90
49765;DHT22;35657;51.204;-4.130;2022-12-18T08:21:36;4.80;99.90
49765;DHT22;35657;51.204;-4.130;2022-12-18T08:24:02;4.80;99.90
49765;DHT22;35657;51.204;-4.130;2022-12-18T08:26:28;4.80;99.90
49765;DHT22;35657;51.204;-4.130;2022-12-18T08:28:55;4.80;99.90
49765;DHT22;35657;51.204;-4.130;2022-12-18T08:31:21;4.90;99.90
49765;DHT22;35657;51.204;-4.130;2022-12-18T08:33:50;4.80;99.90
49765;DHT22;35657;51.204;-4.130;2022-12-18T08:36:16;4.80;99.90
49765;DHT22;35657;51.204;-4.130;2022-12-18T08:38:42;4.90;99.90
49765;DHT22;35657;51.204;-4.130;2022-12-18T08:41:09;4.90;99.90
49765;DHT22;35657;51.204;-4.130;2022-12-18T08:43:34;4.90;99.90
49765;DHT22;35657;51.204;-4.130;2022-12-18T08:46:19;4.90;99.90
49765;DHT22;35657;51.204;-4.130;2022-12-18T08:48:45;4.90;99.90
49765;DHT22;35657;51.204;-4.130;2022-12-18T08:51:11;5.00;99.90
49765;DHT22;35657;51.204;-4.130;2022-12-18T08:53:36;5.00;99.90
49765;DHT22;35657;51.204;-4.130;2022-12-18T08:56:02;5.00;99.90
49765;DHT22;35657;51.204;-4.130;2022-12-18T08:58:28;5.00;99.90
49765;DHT22;35657;51.204;-4.130;2022-12-18T09:00:53;5.00;99.90
49765;DHT22;35657;51.204;-4.130;2022-12-18T09:03:19;5.00;99.90
49765;DHT22;35657;51.204;-4.130;2022-12-18T09:05:47;5.10;99.90
49765;DHT22;35657;51.204;-4.130;2022-12-18T09:08:13;5.10;99.90
49765;DHT22;35657;51.204;-4.130;2022-12-18T09:10:42;5.10;99.90
49765;DHT22;35657;51.204;-4.130;2022-12-18T09:13:09;5.10;99.90
49765;DHT22;35657;51.204;-4.130;2022-12-18T09:15:39;5.20;99.90
49765;DHT22;35657;51.204;-4.130;2022-12-18T09:18:05;5.20;99.90
49765;DHT22;35657;51.204;-4.130;2022-12-18T09:20:30;5.20;99.90
49765;DHT22;35657;51.204;-4.130;2022-12-18T09:22:56;5.30;99.90
49765;DHT22;35657;51.204;-4.130;2022-12-18T09:25:21;5.30;99.90
49765;DHT22;35657;51.204;-4.130;2022-12-18T09:27:47;5.30;99.90
49765;DHT22;35657;51.204;-4.130;2022-12-18T09:30:12;5.40;99.90
49765;DHT22;35657;51.204;-4.130;2022-12-18T09:32:38;5.40;99.90
49765;DHT22;35657;51.204;-4.130;2022-12-18T09:35:04;5.50;99.90
49765;DHT22;35657;51.204;-4.130;2022-12-18T09:37:29;5.50;99.90
49765;DHT22;35657;51.204;-4.130;2022-12-18T09:39:55;5.60;99.90
49765;DHT22;35657;51.204;-4.130;2022-12-18T09:42:21;5.60;99.90
49765;DHT22;35657;51.204;-4.130;2022-12-18T09:44:49;5.60;99.90
49765;DHT22;35657;51.204;-4.130;2022-12-18T09:47:19;5.60;99.90
49765;DHT22;35657;51.204;-4.130;2022-12-18T09:49:49;5.70;99.90
49765;DHT22;35657;51.204;-4.130;2022-12-18T09:54:42;5.70;99.90
49765;DHT22;35657;51.204;-4.130;2022-12-18T09:57:17;5.80;99.90
49765;DHT22;35657;51.204;-4.130;2022-12-18T09:59:44;5.80;99.90
49765;DHT22;35657;51.204;-4.130;2022-12-18T10:02:12;5.80;99.90
49765;DHT22;35657;51.204;-4.130;2022-12-18T10:04:39;5.90;99.90
49765;DHT22;35657;51.204;-4.130;2022-12-18T10:07:09;5.90;99.90
49765;DHT22;35657;51.204;-4.130;2022-12-18T10:09:49;5.90;99.90
49765;DHT22;35657;51.204;-4.130;2022-12-18T10:18:06;6.00;99.90
49765;DHT22;35657;51.204;-4.130;2022-12-18T10:20:45;6.00;99.90
49765;DHT22;35657;51.204;-4.130;2022-12-18T10:23:18;6.10;99.90
49765;DHT22;35657;51.204;-4.130;2022-12-18T10:28:14;6.20;99.90
49765;DHT22;35657;51.204;-4.130;2022-12-18T10:30:41;6.20;99.90
49765;DHT22;35657;51.204;-4.130;2022-12-18T10:33:28;6.30;99.90
49765;DHT22;35657;51.204;-4.130;2022-12-18T10:35:54;6.30;99.90
49765;DHT22;35657;51.204;-4.130;2022-12-18T10:38:21;6.40;99.90
49765;DHT22;35657;51.204;-4.130;2022-12-18T10:43:13;6.40;99.90
49765;DHT22;35657;51.204;-4.130;2022-12-18T10:45:40;6.40;99.90
49765;DHT22;35657;51.204;-4.130;2022-12-18T10:48:17;6.50;99.90
49765;DHT22;35657;51.204;-4.130;2022-12-18T10:50:45;6.50;99.90
49765;DHT22;35657;51.204;-4.130;2022-12-18T10:53:13;6.50;99.90
49765;DHT22;35657;51.204;-4.130;2022-12-18T10:55:43;6.60;99.90
49765;DHT22;35657;51.204;-4.130;2022-12-18T10:58:13;6.60;99.90
49765;DHT22;35657;51.204;-4.130;2022-12-18T11:00:41;6.70;99.90
49765;DHT22;35657;51.204;-4.130;2022-12-18T11:03:28;6.70;99.90
49765;DHT22;35657;51.204;-4.130;2022-12-18T11:06:01;6.70;99.90
49765;DHT22;35657;51.204;-4.130;2022-12-18T11:08:27;6.80;99.90
49765;DHT22;35657;51.204;-4.130;2022-12-18T11:10:52;6.80;99.90
49765;DHT22;35657;51.204;-4.130;2022-12-18T11:13:22;6.80;99.90
49765;DHT22;35657;51.204;-4.130;2022-12-18T11:15:48;6.90;99.90
49765;DHT22;35657;51.204;-4.130;2022-12-18T11:18:22;6.90;99.90
49765;DHT22;35657;51.204;-4.130;2022-12-18T11:20:58;6.90;99.90
49765;DHT22;35657;51.204;-4.130;2022-12-18T11:23:24;7.00;99.90
49765;DHT22;35657;51.204;-4.130;2022-12-18T11:25:51;7.10;99.90
49765;DHT22;35657;51.204;-4.130;2022-12-18T11:31:26;7.10;99.90
49765;DHT22;35657;51.204;-4.130;2022-12-18T11:33:46;7.20;99.90
49765;DHT22;35657;51.204;-4.130;2022-12-18T11:36:13;7.20;99.90
49765;DHT22;35657;51.204;-4.130;2022-12-18T11:38:39;7.30;99.90
49765;DHT22;35657;51.204;-4.130;2022-12-18T11:46:13;7.30;99.90
49765;DHT22;35657;51.204;-4.130;2022-12-18T11:49:15;7.40;99.90
49765;DHT22;35657;51.204;-4.130;2022-12-18T11:51:35;7.40;99.90
49765;DHT22;35657;51.204;-4.130;2022-12-18T11:54:09;7.40;99.90
49765;DHT22;35657;51.204;-4.130;2022-12-18T11:56:38;7.50;99.90
49765;DHT22;35657;51.204;-4.130;2022-12-18T11:59:23;7.50;99.90
49765;DHT22;35657;51.204;-4.130;2022-12-18T12:01:53;7.60;99.90
49765;DHT22;35657;51.204;-4.130;2022-12-18T12:04:31;7.50;99.90
49765;DHT22;35657;51.204;-4.130;2022-12-18T12:14:36;7.60;99.90
49765;DHT22;35657;51.204;-4.130;2022-12-18T12:22:00;7.60;99.90
49765;DHT22;35657;51.204;-4.130;2022-12-18T12:34:26;7.80;99.90
49765;DHT22;35657;51.204;-4.130;2022-12-18T12:37:10;7.80;99.90
49765;DHT22;35657;51.204;-4.130;2022-12-18T12:39:40;7.90;99.90
49765;DHT22;35657;51.204;-4.130;2022-12-18T12:42:51;7.80;99.90
49765;DHT22;35657;51.204;-4.130;2022-12-18T12:45:16;7.90;99.90
49765;DHT22;35657;51.204;-4.130;2022-12-18T12:47:43;7.80;99.90
49765;DHT22;35657;51.204;-4.130;2022-12-18T12:50:13;7.90;99.90
49765;DHT22;35657;51.204;-4.130;2022-12-18T12:52:44;7.90;99.90
49765;DHT22;35657;51.204;-4.130;2022-12-18T12:55:26;7.90;99.90
49765;DHT22;35657;51.204;-4.130;2022-12-18T13:00:33;8.00;99.90
49765;DHT22;35657;51.204;-4.130;2022-12-18T13:11:12;8.10;99.90
49765;DHT22;35657;51.204;-4.130;2022-12-18T13:13:59;8.10;99.90
49765;DHT22;35657;51.204;-4.130;2022-12-18T13:16:25;8.20;99.90
49765;DHT22;35657;51.204;-4.130;2022-12-18T13:18:53;8.20;99.90
49765;DHT22;35657;51.204;-4.130;2022-12-18T13:21:27;8.20;99.90
49765;DHT22;35657;51.204;-4.130;2022-12-18T13:23:53;8.30;99.90
49765;DHT22;35657;51.204;-4.130;2022-12-18T13:33:39;8.20;99.90
49765;DHT22;35657;51.204;-4.130;2022-12-18T13:38:40;8.20;99.90
49765;DHT22;35657;51.204;-4.130;2022-12-18T13:51:22;8.40;99.90
49765;DHT22;35657;51.204;-4.130;2022-12-18T13:53:49;8.50;99.90
49765;DHT22;35657;51.204;-4.130;2022-12-18T13:56:16;8.40;99.90
49765;DHT22;35657;51.204;-4.130;2022-12-18T13:58:42;8.50;99.90
49765;DHT22;35657;51.204;-4.130;2022-12-18T14:01:23;8.40;99.90
49765;DHT22;35657;51.204;-4.130;2022-12-18T14:03:48;8.50;99.90
49765;DHT22;35657;51.204;-4.130;2022-12-18T14:06:14;8.50;99.90
49765;DHT22;35657;51.204;-4.130;2022-12-18T14:08:40;8.50;99.90
49765;DHT22;35657;51.204;-4.130;2022-12-18T14:11:06;8.50;99.90
49765;DHT22;35657;51.204;-4.130;2022-12-18T14:13:36;8.60;99.90
49765;DHT22;35657;51.204;-4.130;2022-12-18T14:16:03;8.60;99.90
49765;DHT22;35657;51.204;-4.130;2022-12-18T14:18:43;8.60;99.90
49765;DHT22;35657;51.204;-4.130;2022-12-18T14:21:15;8.70;99.90
49765;DHT22;35657;51.204;-4.130;2022-12-18T14:23:42;8.70;99.90
49765;DHT22;35657;51.204;-4.130;2022-12-18T14:29:20;8.70;99.90
49765;DHT22;35657;51.204;-4.130;2022-12-18T14:31:46;8.70;99.90
49765;DHT22;35657;51.204;-4.130;2022-12-18T14:34:15;8.70;99.90
49765;DHT22;35657;51.204;-4.130;2022-12-18T14:36:41;8.80;99.90
49765;DHT22;35657;51.204;-4.130;2022-12-18T14:39:13;8.80;99.90
49765;DHT22;35657;51.204;-4.130;2022-12-18T14:41:41;8.80;99.90
49765;DHT22;35657;51.204;-4.130;2022-12-18T14:44:07;8.80;99.90
49765;DHT22;35657;51.204;-4.130;2022-12-18T14:46:37;8.80;99.90
49765;DHT22;35657;51.204;-4.130;2022-12-18T14:49:25;8.90;99.90
49765;DHT22;35657;51.204;-4.130;2022-12-18T14:51:53;8.90;99.90
49765;DHT22;35657;51.204;-4.130;2022-12-18T14:54:20;8.90;99.90
49765;DHT22;35657;51.204;-4.130;2022-12-18T14:56:47;9.00;99.90
49765;DHT22;35657;51.204;-4.130;2022-12-18T14:59:13;9.00;99.90
49765;DHT22;35657;51.204;-4.130;2022-12-18T15:09:32;9.10;99.90
49765;DHT22;35657;51.204;-4.130;2022-12-18T15:11:59;9.20;99.90
49765;DHT22;35657;51.204;-4.130;2022-12-18T15:16:57;9.30;99.90
49765;DHT22;35657;51.204;-4.130;2022-12-18T15:19:27;9.30;99.90
49765;DHT22;35657;51.204;-4.130;2022-12-18T15:21:57;9.20;99.90
49765;DHT22;35657;51.204;-4.130;2022-12-18T15:24:24;9.30;99.90
49765;DHT22;35657;51.204;-4.130;2022-12-18T15:26:51;9.40;99.90
49765;DHT22;35657;51.204;-4.130;2022-12-18T15:29:19;9.40;99.90
49765;DHT22;35657;51.204;-4.130;2022-12-18T15:31:45;9.40;99.90
49765;DHT22;35657;51.204;-4.130;2022-12-18T15:34:23;9.30;99.90
49765;DHT22;35657;51.204;-4.130;2022-12-18T15:36:50;9.40;99.90
49765;DHT22;35657;51.204;-4.130;2022-12-18T15:39:16;9.40;99.90
49765;DHT22;35657;51.204;-4.130;2022-12-18T15:41:41;9.40;99.90
49765;DHT22;35657;51.204;-4.130;2022-12-18T15:44:27;9.40;99.90
49765;DHT22;35657;51.204;-4.130;2022-12-18T15:46:53;9.40;99.90
49765;DHT22;35657;51.204;-4.130;2022-12-18T15:49:18;9.40;99.90
49765;DHT22;35657;51.204;-4.130;2022-12-18T15:51:44;9.40;99.90
49765;DHT22;35657;51.204;-4.130;2022-12-18T15:54:11;9.40;99.90
49765;DHT22;35657;51.204;-4.130;2022-12-18T15:56:38;9.50;99.90
49765;DHT22;35657;51.204;-4.130;2022-12-18T15:59:22;9.50;99.90
49765;DHT22;35657;51.204;-4.130;2022-12-18T16:01:49;9.50;99.90
49765;DHT22;35657;51.204;-4.130;2022-12-18T16:04:16;9.50;99.90
49765;DHT22;35657;51.204;-4.130;2022-12-18T16:06:42;9.60;99.90
49765;DHT22;35657;51.204;-4.130;2022-12-18T16:09:08;9.60;99.90
49765;DHT22;35657;51.204;-4.130;2022-12-18T16:11:34;9.70;99.90
49765;DHT22;35657;51.204;-4.130;2022-12-18T16:14:23;9.70;99.90
49765;DHT22;35657;51.204;-4.130;2022-12-18T16:16:50;9.70;99.90
49765;DHT22;35657;51.204;-4.130;2022-12-18T16:19:16;9.80;99.90
49765;DHT22;35657;51.204;-4.130;2022-12-18T16:21:42;9.70;99.90
49765;DHT22;35657;51.204;-4.130;2022-12-18T16:24:17;9.90;99.90
49765;DHT22;35657;51.204;-4.130;2022-12-18T16:26:43;9.90;99.90
49765;DHT22;35657;51.204;-4.130;2022-12-18T16:29:09;9.90;99.90
49765;DHT22;35657;51.204;-4.130;2022-12-18T16:31:35;9.90;99.90
49765;DHT22;35657;51.204;-4.130;2022-12-18T16:36:35;9.80;99.90
49765;DHT22;35657;51.204;-4.130;2022-12-18T16:39:01;9.80;99.90
49765;DHT22;35657;51.204;-4.130;2022-12-18T16:41:27;9.80;99.90
49765;DHT22;35657;51.204;-4.130;2022-12-18T16:44:02;9.80;99.90
49765;DHT22;35657;51.204;-4.130;2022-12-18T16:46:28;9.90;99.90
49765;DHT22;35657;51.204;-4.130;2022-12-18T16:48:54;9.90;99.90
49765;DHT22;35657;51.204;-4.130;2022-12-18T16:51:19;9.90;99.90
49765;DHT22;35657;51.204;-4.130;2022-12-18T16:53:45;9.90;99.90
49765;DHT22;35657;51.204;-4.130;2022-12-18T16:56:11;9.90;99.90
49765;DHT22;35657;51.204;-4.130;2022-12-18T16:58:37;9.90;99.90
49765;DHT22;35657;51.204;-4.130;2022-12-18T17:01:07;9.90;99.90
49765;DHT22;35657;51.204;-4.130;2022-12-18T17:03:32;9.90;99.90
49765;DHT22;35657;51.204;-4.130;2022-12-18T17:06:04;9.90;99.90
49765;DHT22;35657;51.204;-4.130;2022-12-18T17:08:30;10.00;99.90
49765;DHT22;35657;51.204;-4.130;2022-12-18T17:12:31;12.10;99.90
49765;DHT22;35657;51.204;-4.130;2022-12-18T17:14:57;10.10;99.90
49765;DHT22;35657;51.204;-4.130;2022-12-18T17:17:23;10.10;99.90
49765;DHT22;35657;51.204;-4.130;2022-12-18T17:19:49;10.10;99.90
49765;DHT22;35657;51.204;-4.130;2022-12-18T17:22:15;10.10;99.90
49765;DHT22;35657;51.204;-4.130;2022-12-18T17:24:40;10.10;99.90
49765;DHT22;35657;51.204;-4.130;2022-12-18T17:27:06;10.20;99.90
49765;DHT22;35657;51.204;-4.130;2022-12-18T17:29:33;10.10;99.90
49765;DHT22;35657;51.204;-4.130;2022-12-18T17:31:58;10.20;99.90
49765;DHT22;35657;51.204;-4.130;2022-12-18T17:34:24;10.20;99.90